sensor_id;sensor_type;location;lat;lon;timestamp;P1;durP1;ratioP1;P2;durP2;ratioP2
16460;SDS011;8341;42.048;24.650;2024-03-29T00:01:25;9.60;;;1.83;;
16460;SDS011;8341;42.048;24.650;2024-03-29T00:03:51;8.93;;;1.60;;
16460;SDS011;8341;42.048;24.650;2024-03-29T00:06:17;7.80;;;1.70;;
16460;SDS011;8341;42.048;24.650;2024-03-29T00:08:43;7.95;;;2.00;;
16460;SDS011;8341;42.048;24.650;2024-03-29T00:11:09;8.98;;;1.30;;
16460;SDS011;8341;42.048;24.650;2024-03-29T00:13:36;9.20;;;2.25;;
16460;SDS011;8341;42.048;24.650;2024-03-29T00:16:03;7.65;;;1.60;;
16460;SDS011;8341;42.048;24.650;2024-03-29T00:18:29;6.32;;;1.40;;
16460;SDS011;8341;42.048;24.650;2024-03-29T00:20:55;8.57;;;1.52;;
16460;SDS011;8341;42.048;24.650;2024-03-29T00:23:21;9.80;;;1.63;;
16460;SDS011;8341;42.048;24.650;2024-03-29T00:25:47;7.32;;;1.98;;
16460;SDS011;8341;42.048;24.650;2024-03-29T00:28:13;7.20;;;1.30;;
16460;SDS011;8341;42.048;24.650;2024-03-29T00:30:40;6.28;;;1.60;;
16460;SDS011;8341;42.048;24.650;2024-03-29T00:33:06;8.57;;;1.33;;
16460;SDS011;8341;42.048;24.650;2024-03-29T00:35:32;7.65;;;1.52;;
16460;SDS011;8341;42.048;24.650;2024-03-29T00:37:58;4.93;;;1.40;;
16460;SDS011;8341;42.048;24.650;2024-03-29T00:40:24;12.27;;;1.67;;
16460;SDS011;8341;42.048;24.650;2024-03-29T00:42:50;8.80;;;1.58;;
16460;SDS011;8341;42.048;24.650;2024-03-29T00:45:16;8.63;;;1.40;;
16460;SDS011;8341;42.048;24.650;2024-03-29T00:47:44;7.68;;;1.30;;
16460;SDS011;8341;42.048;24.650;2024-03-29T00:50:10;5.28;;;1.10;;
16460;SDS011;8341;42.048;24.650;2024-03-29T00:52:36;7.43;;;1.30;;
16460;SDS011;8341;42.048;24.650;2024-03-29T00:55:02;5.13;;;1.20;;
16460;SDS011;8341;42.048;24.650;2024-03-29T00:57:28;7.20;;;1.45;;
16460;SDS011;8341;42.048;24.650;2024-03-29T00:59:54;5.05;;;1.27;;
16460;SDS011;8341;42.048;24.650;2024-03-29T01:02:19;7.03;;;1.13;;
16460;SDS011;8341;42.048;24.650;2024-03-29T01:04:47;6.28;;;1.30;;
16460;SDS011;8341;42.048;24.650;2024-03-29T01:07:13;8.02;;;1.10;;
16460;SDS011;8341;42.048;24.650;2024-03-29T01:09:39;4.55;;;1.20;;
16460;SDS011;8341;42.048;24.650;2024-03-29T01:12:04;6.43;;;1.45;;
16460;SDS011;8341;42.048;24.650;2024-03-29T01:14:30;6.45;;;1.50;;
16460;SDS011;8341;42.048;24.650;2024-03-29T01:16:56;9.18;;;1.38;;
16460;SDS011;8341;42.048;24.650;2024-03-29T01:19:22;6.70;;;1.23;;
16460;SDS011;8341;42.048;24.650;2024-03-29T01:21:49;5.95;;;1.15;;
16460;SDS011;8341;42.048;24.650;2024-03-29T01:24:15;5.68;;;1.10;;
16460;SDS011;8341;42.048;24.650;2024-03-29T01:26:41;5.40;;;0.98;;
16460;SDS011;8341;42.048;24.650;2024-03-29T01:29:07;3.58;;;1.02;;
16460;SDS011;8341;42.048;24.650;2024-03-29T01:31:33;4.60;;;1.38;;
16460;SDS011;8341;42.048;24.650;2024-03-29T01:33:59;6.65;;;1.50;;
16460;SDS011;8341;42.048;24.650;2024-03-29T01:36:25;9.32;;;1.30;;
16460;SDS011;8341;42.048;24.650;2024-03-29T01:38:52;9.10;;;1.63;;
16460;SDS011;8341;42.048;24.650;2024-03-29T01:41:19;6.57;;;1.08;;
16460;SDS011;8341;42.048;24.650;2024-03-29T01:43:44;7.80;;;1.30;;
16460;SDS011;8341;42.048;24.650;2024-03-29T01:46:11;5.60;;;1.67;;
16460;SDS011;8341;42.048;24.650;2024-03-29T01:48:38;5.70;;;1.15;;
16460;SDS011;8341;42.048;24.650;2024-03-29T01:51:05;5.88;;;1.35;;
16460;SDS011;8341;42.048;24.650;2024-03-29T01:53:33;6.60;;;1.17;;
16460;SDS011;8341;42.048;24.650;2024-03-29T01:56:01;3.92;;;0.90;;
16460;SDS011;8341;42.048;24.650;2024-03-29T01:58:30;4.72;;;1.02;;
16460;SDS011;8341;42.048;24.650;2024-03-29T02:00:58;4.57;;;0.82;;
16460;SDS011;8341;42.048;24.650;2024-03-29T02:03:26;5.07;;;1.10;;
16460;SDS011;8341;42.048;24.650;2024-03-29T02:05:53;5.38;;;1.05;;
16460;SDS011;8341;42.048;24.650;2024-03-29T02:08:22;4.00;;;0.70;;
16460;SDS011;8341;42.048;24.650;2024-03-29T02:10:49;3.05;;;0.80;;
16460;SDS011;8341;42.048;24.650;2024-03-29T02:13:18;3.13;;;0.80;;
16460;SDS011;8341;42.048;24.650;2024-03-29T02:15:45;3.70;;;0.90;;
16460;SDS011;8341;42.048;24.650;2024-03-29T02:18:12;3.97;;;0.82;;
16460;SDS011;8341;42.048;24.650;2024-03-29T02:20:39;4.25;;;0.80;;
16460;SDS011;8341;42.048;24.650;2024-03-29T02:23:06;3.28;;;0.63;;
16460;SDS011;8341;42.048;24.650;2024-03-29T02:25:37;4.05;;;1.10;;
16460;SDS011;8341;42.048;24.650;2024-03-29T02:28:05;2.63;;;1.25;;
16460;SDS011;8341;42.048;24.650;2024-03-29T02:30:32;4.15;;;1.00;;
16460;SDS011;8341;42.048;24.650;2024-03-29T02:32:59;2.80;;;0.88;;
16460;SDS011;8341;42.048;24.650;2024-03-29T02:35:27;3.95;;;0.70;;
16460;SDS011;8341;42.048;24.650;2024-03-29T02:37:55;5.72;;;0.77;;
16460;SDS011;8341;42.048;24.650;2024-03-29T02:40:22;7.25;;;1.02;;
16460;SDS011;8341;42.048;24.650;2024-03-29T02:42:50;8.05;;;1.10;;
16460;SDS011;8341;42.048;24.650;2024-03-29T02:45:17;2.90;;;0.93;;
16460;SDS011;8341;42.048;24.650;2024-03-29T02:47:44;5.18;;;0.90;;
16460;SDS011;8341;42.048;24.650;2024-03-29T02:50:13;2.25;;;0.60;;
16460;SDS011;8341;42.048;24.650;2024-03-29T02:52:41;5.35;;;0.82;;
16460;SDS011;8341;42.048;24.650;2024-03-29T02:55:08;3.75;;;0.80;;
16460;SDS011;8341;42.048;24.650;2024-03-29T02:57:35;6.30;;;0.65;;
16460;SDS011;8341;42.048;24.650;2024-03-29T03:00:04;3.63;;;0.70;;
16460;SDS011;8341;42.048;24.650;2024-03-29T03:02:30;3.20;;;0.60;;
16460;SDS011;8341;42.048;24.650;2024-03-29T03:04:57;2.95;;;0.60;;
16460;SDS011;8341;42.048;24.650;2024-03-29T03:07:24;4.72;;;0.50;;
16460;SDS011;8341;42.048;24.650;2024-03-29T03:10:09;3.42;;;0.70;;
16460;SDS011;8341;42.048;24.650;2024-03-29T03:12:53;3.92;;;0.85;;
16460;SDS011;8341;42.048;24.650;2024-03-29T03:15:21;3.50;;;0.82;;
16460;SDS011;8341;42.048;24.650;2024-03-29T03:17:48;2.80;;;0.60;;
16460;SDS011;8341;42.048;24.650;2024-03-29T03:20:14;4.57;;;0.60;;
16460;SDS011;8341;42.048;24.650;2024-03-29T03:22:41;4.35;;;0.60;;
16460;SDS011;8341;42.048;24.650;2024-03-29T03:25:08;3.38;;;0.95;;
16460;SDS011;8341;42.048;24.650;2024-03-29T03:27:34;4.03;;;0.60;;
16460;SDS011;8341;42.048;24.650;2024-03-29T03:30:01;4.72;;;0.60;;
16460;SDS011;8341;42.048;24.650;2024-03-29T03:32:29;5.60;;;1.90;;
16460;SDS011;8341;42.048;24.650;2024-03-29T03:34:55;5.10;;;1.20;;
16460;SDS011;8341;42.048;24.650;2024-03-29T03:37:21;2.97;;;1.25;;
16460;SDS011;8341;42.048;24.650;2024-03-29T03:39:48;3.25;;;1.02;;
16460;SDS011;8341;42.048;24.650;2024-03-29T03:42:14;2.08;;;0.63;;
16460;SDS011;8341;42.048;24.650;2024-03-29T03:44:40;3.53;;;1.42;;
16460;SDS011;8341;42.048;24.650;2024-03-29T03:47:07;6.47;;;2.13;;
16460;SDS011;8341;42.048;24.650;2024-03-29T03:49:34;4.43;;;1.33;;
16460;SDS011;8341;42.048;24.650;2024-03-29T03:52:01;3.22;;;1.02;;
16460;SDS011;8341;42.048;24.650;2024-03-29T03:54:27;4.00;;;1.50;;
16460;SDS011;8341;42.048;24.650;2024-03-29T03:56:54;3.28;;;1.23;;
16460;SDS011;8341;42.048;24.650;2024-03-29T03:59:20;4.43;;;1.65;;
16460;SDS011;8341;42.048;24.650;2024-03-29T04:01:47;4.57;;;0.70;;
16460;SDS011;8341;42.048;24.650;2024-03-29T04:04:16;2.67;;;1.08;;
16460;SDS011;8341;42.048;24.650;2024-03-29T04:06:44;3.70;;;1.70;;
16460;SDS011;8341;42.048;24.650;2024-03-29T04:09:10;3.58;;;1.63;;
16460;SDS011;8341;42.048;24.650;2024-03-29T04:11:41;3.08;;;1.00;;
16460;SDS011;8341;42.048;24.650;2024-03-29T04:14:07;4.68;;;1.50;;
16460;SDS011;8341;42.048;24.650;2024-03-29T04:16:33;3.80;;;1.00;;
16460;SDS011;8341;42.048;24.650;2024-03-29T04:19:00;1.45;;;0.70;;
16460;SDS011;8341;42.048;24.650;2024-03-29T04:21:27;3.90;;;0.95;;
16460;SDS011;8341;42.048;24.650;2024-03-29T04:23:54;5.30;;;0.90;;
16460;SDS011;8341;42.048;24.650;2024-03-29T04:26:21;5.25;;;1.02;;
16460;SDS011;8341;42.048;24.650;2024-03-29T04:28:47;3.65;;;0.80;;
16460;SDS011;8341;42.048;24.650;2024-03-29T04:31:14;3.53;;;0.98;;
16460;SDS011;8341;42.048;24.650;2024-03-29T04:33:40;2.97;;;0.50;;
16460;SDS011;8341;42.048;24.650;2024-03-29T04:36:07;3.45;;;0.55;;
16460;SDS011;8341;42.048;24.650;2024-03-29T04:38:33;3.10;;;0.80;;
16460;SDS011;8341;42.048;24.650;2024-03-29T04:41:02;8.05;;;2.67;;
16460;SDS011;8341;42.048;24.650;2024-03-29T04:43:29;3.35;;;0.70;;
16460;SDS011;8341;42.048;24.650;2024-03-29T04:46:02;1.25;;;0.50;;
16460;SDS011;8341;42.048;24.650;2024-03-29T04:48:30;3.75;;;0.63;;
16460;SDS011;8341;42.048;24.650;2024-03-29T04:50:57;4.45;;;0.70;;
16460;SDS011;8341;42.048;24.650;2024-03-29T04:53:25;4.30;;;0.55;;
16460;SDS011;8341;42.048;24.650;2024-03-29T04:55:55;4.38;;;0.70;;
16460;SDS011;8341;42.048;24.650;2024-03-29T04:58:24;2.95;;;0.98;;
16460;SDS011;8341;42.048;24.650;2024-03-29T05:00:52;2.13;;;0.90;;
16460;SDS011;8341;42.048;24.650;2024-03-29T05:03:19;5.95;;;0.93;;
16460;SDS011;8341;42.048;24.650;2024-03-29T05:05:48;5.35;;;1.00;;
16460;SDS011;8341;42.048;24.650;2024-03-29T05:08:16;2.20;;;0.60;;
16460;SDS011;8341;42.048;24.650;2024-03-29T05:10:44;2.17;;;0.40;;
16460;SDS011;8341;42.048;24.650;2024-03-29T05:13:11;2.45;;;0.55;;
16460;SDS011;8341;42.048;24.650;2024-03-29T05:15:40;3.83;;;0.70;;
16460;SDS011;8341;42.048;24.650;2024-03-29T05:18:06;2.35;;;0.60;;
16460;SDS011;8341;42.048;24.650;2024-03-29T05:20:33;2.47;;;0.80;;
16460;SDS011;8341;42.048;24.650;2024-03-29T05:23:01;5.95;;;0.60;;
16460;SDS011;8341;42.048;24.650;2024-03-29T05:25:28;3.38;;;0.85;;
16460;SDS011;8341;42.048;24.650;2024-03-29T05:27:55;4.03;;;0.60;;
16460;SDS011;8341;42.048;24.650;2024-03-29T05:30:22;2.28;;;0.60;;
16460;SDS011;8341;42.048;24.650;2024-03-29T05:32:51;3.13;;;0.65;;
16460;SDS011;8341;42.048;24.650;2024-03-29T05:35:18;1.85;;;0.57;;
16460;SDS011;8341;42.048;24.650;2024-03-29T05:37:45;1.77;;;0.47;;
16460;SDS011;8341;42.048;24.650;2024-03-29T05:40:16;3.60;;;0.70;;
16460;SDS011;8341;42.048;24.650;2024-03-29T05:42:43;2.13;;;0.57;;
16460;SDS011;8341;42.048;24.650;2024-03-29T05:45:21;4.10;;;0.73;;
16460;SDS011;8341;42.048;24.650;2024-03-29T05:47:52;5.22;;;0.60;;
16460;SDS011;8341;42.048;24.650;2024-03-29T05:50:20;2.13;;;0.50;;
16460;SDS011;8341;42.048;24.650;2024-03-29T05:52:47;1.50;;;0.50;;
16460;SDS011;8341;42.048;24.650;2024-03-29T05:55:14;3.65;;;0.55;;
16460;SDS011;8341;42.048;24.650;2024-03-29T05:57:41;2.55;;;0.50;;
16460;SDS011;8341;42.048;24.650;2024-03-29T06:00:11;3.75;;;0.93;;
16460;SDS011;8341;42.048;24.650;2024-03-29T06:02:39;3.28;;;0.70;;
16460;SDS011;8341;42.048;24.650;2024-03-29T06:05:09;3.08;;;0.88;;
16460;SDS011;8341;42.048;24.650;2024-03-29T06:07:36;2.92;;;1.00;;
16460;SDS011;8341;42.048;24.650;2024-03-29T06:10:04;1.45;;;0.80;;
16460;SDS011;8341;42.048;24.650;2024-03-29T06:12:33;1.70;;;0.35;;
16460;SDS011;8341;42.048;24.650;2024-03-29T06:15:00;1.08;;;0.35;;
16460;SDS011;8341;42.048;24.650;2024-03-29T06:17:44;3.15;;;0.55;;
16460;SDS011;8341;42.048;24.650;2024-03-29T06:20:13;2.45;;;0.60;;
16460;SDS011;8341;42.048;24.650;2024-03-29T06:22:40;1.83;;;0.65;;
16460;SDS011;8341;42.048;24.650;2024-03-29T06:25:07;3.40;;;0.50;;
16460;SDS011;8341;42.048;24.650;2024-03-29T06:27:34;2.70;;;0.70;;
16460;SDS011;8341;42.048;24.650;2024-03-29T06:30:02;3.05;;;0.80;;
16460;SDS011;8341;42.048;24.650;2024-03-29T06:32:31;2.58;;;0.50;;
16460;SDS011;8341;42.048;24.650;2024-03-29T06:34:58;2.70;;;0.75;;
16460;SDS011;8341;42.048;24.650;2024-03-29T06:37:26;2.33;;;0.57;;
16460;SDS011;8341;42.048;24.650;2024-03-29T06:39:54;2.92;;;0.50;;
16460;SDS011;8341;42.048;24.650;2024-03-29T06:42:21;3.33;;;0.75;;
16460;SDS011;8341;42.048;24.650;2024-03-29T06:44:49;3.67;;;0.68;;
16460;SDS011;8341;42.048;24.650;2024-03-29T06:47:17;2.97;;;0.60;;
16460;SDS011;8341;42.048;24.650;2024-03-29T06:49:44;2.75;;;0.50;;
16460;SDS011;8341;42.048;24.650;2024-03-29T06:52:11;1.67;;;0.55;;
16460;SDS011;8341;42.048;24.650;2024-03-29T06:54:39;3.28;;;0.50;;
16460;SDS011;8341;42.048;24.650;2024-03-29T06:57:07;0.80;;;0.50;;
16460;SDS011;8341;42.048;24.650;2024-03-29T06:59:35;1.25;;;0.50;;
16460;SDS011;8341;42.048;24.650;2024-03-29T07:02:02;0.52;;;0.38;;
16460;SDS011;8341;42.048;24.650;2024-03-29T07:04:29;2.88;;;0.73;;
16460;SDS011;8341;42.048;24.650;2024-03-29T07:06:56;1.52;;;0.70;;
16460;SDS011;8341;42.048;24.650;2024-03-29T07:09:23;1.25;;;0.40;;
16460;SDS011;8341;42.048;24.650;2024-03-29T07:11:52;1.70;;;0.45;;
16460;SDS011;8341;42.048;24.650;2024-03-29T07:14:20;1.95;;;0.50;;
16460;SDS011;8341;42.048;24.650;2024-03-29T07:16:48;0.93;;;0.30;;
16460;SDS011;8341;42.048;24.650;2024-03-29T07:19:15;2.40;;;0.50;;
16460;SDS011;8341;42.048;24.650;2024-03-29T07:21:44;2.92;;;0.60;;
16460;SDS011;8341;42.048;24.650;2024-03-29T07:24:11;0.90;;;0.60;;
16460;SDS011;8341;42.048;24.650;2024-03-29T07:26:38;1.33;;;0.43;;
16460;SDS011;8341;42.048;24.650;2024-03-29T07:29:06;1.30;;;0.30;;
16460;SDS011;8341;42.048;24.650;2024-03-29T07:31:33;2.97;;;0.50;;
16460;SDS011;8341;42.048;24.650;2024-03-29T07:34:00;2.22;;;0.40;;
16460;SDS011;8341;42.048;24.650;2024-03-29T07:36:27;0.85;;;0.30;;
16460;SDS011;8341;42.048;24.650;2024-03-29T07:38:59;2.63;;;0.50;;
16460;SDS011;8341;42.048;24.650;2024-03-29T07:41:26;2.30;;;0.50;;
16460;SDS011;8341;42.048;24.650;2024-03-29T07:43:53;1.98;;;0.50;;
16460;SDS011;8341;42.048;24.650;2024-03-29T07:46:27;4.22;;;0.40;;
16460;SDS011;8341;42.048;24.650;2024-03-29T07:48:55;1.23;;;0.47;;
16460;SDS011;8341;42.048;24.650;2024-03-29T07:51:22;1.30;;;0.52;;
16460;SDS011;8341;42.048;24.650;2024-03-29T07:53:49;2.88;;;0.40;;
16460;SDS011;8341;42.048;24.650;2024-03-29T07:56:17;2.28;;;0.50;;
16460;SDS011;8341;42.048;24.650;2024-03-29T07:58:44;1.45;;;0.30;;
16460;SDS011;8341;42.048;24.650;2024-03-29T08:01:17;2.20;;;0.32;;
16460;SDS011;8341;42.048;24.650;2024-03-29T08:03:46;1.58;;;0.40;;
16460;SDS011;8341;42.048;24.650;2024-03-29T08:06:13;0.95;;;0.45;;
16460;SDS011;8341;42.048;24.650;2024-03-29T08:08:42;1.02;;;0.52;;
16460;SDS011;8341;42.048;24.650;2024-03-29T08:11:09;1.65;;;0.35;;
16460;SDS011;8341;42.048;24.650;2024-03-29T08:13:36;10.02;;;6.20;;
16460;SDS011;8341;42.048;24.650;2024-03-29T08:16:04;3.50;;;0.50;;
16460;SDS011;8341;42.048;24.650;2024-03-29T08:18:31;1.15;;;0.50;;
16460;SDS011;8341;42.048;24.650;2024-03-29T08:21:01;1.77;;;0.40;;
16460;SDS011;8341;42.048;24.650;2024-03-29T08:23:28;1.27;;;0.30;;
16460;SDS011;8341;42.048;24.650;2024-03-29T08:25:56;1.33;;;0.50;;
16460;SDS011;8341;42.048;24.650;2024-03-29T08:28:23;0.50;;;0.30;;
16460;SDS011;8341;42.048;24.650;2024-03-29T08:30:58;1.85;;;0.45;;
16460;SDS011;8341;42.048;24.650;2024-03-29T08:33:26;1.88;;;0.40;;
16460;SDS011;8341;42.048;24.650;2024-03-29T08:35:53;0.43;;;0.40;;
16460;SDS011;8341;42.048;24.650;2024-03-29T08:38:22;3.08;;;0.55;;
16460;SDS011;8341;42.048;24.650;2024-03-29T08:40:50;1.83;;;0.55;;
16460;SDS011;8341;42.048;24.650;2024-03-29T08:43:17;0.47;;;0.32;;
16460;SDS011;8341;42.048;24.650;2024-03-29T08:45:44;2.38;;;0.50;;
16460;SDS011;8341;42.048;24.650;2024-03-29T08:48:11;2.08;;;0.43;;
16460;SDS011;8341;42.048;24.650;2024-03-29T08:50:38;1.33;;;0.40;;
16460;SDS011;8341;42.048;24.650;2024-03-29T08:53:05;1.10;;;0.47;;
16460;SDS011;8341;42.048;24.650;2024-03-29T08:55:33;1.90;;;0.43;;
16460;SDS011;8341;42.048;24.650;2024-03-29T08:58:01;1.48;;;0.40;;
16460;SDS011;8341;42.048;24.650;2024-03-29T09:00:29;0.52;;;0.25;;
16460;SDS011;8341;42.048;24.650;2024-03-29T09:02:57;2.40;;;0.45;;
16460;SDS011;8341;42.048;24.650;2024-03-29T09:05:24;0.52;;;0.40;;
16460;SDS011;8341;42.048;24.650;2024-03-29T09:07:54;2.45;;;0.50;;
16460;SDS011;8341;42.048;24.650;2024-03-29T09:10:21;3.65;;;0.40;;
16460;SDS011;8341;42.048;24.650;2024-03-29T09:12:50;3.92;;;0.40;;
16460;SDS011;8341;42.048;24.650;2024-03-29T09:15:17;1.13;;;0.47;;
16460;SDS011;8341;42.048;24.650;2024-03-29T09:17:44;1.63;;;0.30;;
16460;SDS011;8341;42.048;24.650;2024-03-29T09:20:11;1.70;;;0.47;;
16460;SDS011;8341;42.048;24.650;2024-03-29T09:22:39;1.77;;;0.50;;
16460;SDS011;8341;42.048;24.650;2024-03-29T09:25:06;1.75;;;0.50;;
16460;SDS011;8341;42.048;24.650;2024-03-29T09:27:38;3.47;;;0.65;;
16460;SDS011;8341;42.048;24.650;2024-03-29T09:30:10;2.45;;;0.60;;
16460;SDS011;8341;42.048;24.650;2024-03-29T09:32:38;1.10;;;0.60;;
16460;SDS011;8341;42.048;24.650;2024-03-29T09:35:05;1.05;;;0.40;;
16460;SDS011;8341;42.048;24.650;2024-03-29T09:37:33;1.00;;;0.32;;
16460;SDS011;8341;42.048;24.650;2024-03-29T09:40:01;2.00;;;0.60;;
16460;SDS011;8341;42.048;24.650;2024-03-29T09:42:31;1.67;;;0.50;;
16460;SDS011;8341;42.048;24.650;2024-03-29T09:44:59;2.58;;;0.80;;
16460;SDS011;8341;42.048;24.650;2024-03-29T09:47:31;1.35;;;0.40;;
16460;SDS011;8341;42.048;24.650;2024-03-29T09:49:59;1.80;;;0.50;;
16460;SDS011;8341;42.048;24.650;2024-03-29T09:52:29;1.33;;;0.40;;
16460;SDS011;8341;42.048;24.650;2024-03-29T09:54:57;1.50;;;0.45;;
16460;SDS011;8341;42.048;24.650;2024-03-29T09:57:26;0.90;;;0.50;;
16460;SDS011;8341;42.048;24.650;2024-03-29T09:59:55;3.65;;;0.60;;
16460;SDS011;8341;42.048;24.650;2024-03-29T10:02:23;2.45;;;0.40;;
16460;SDS011;8341;42.048;24.650;2024-03-29T10:04:56;2.40;;;0.43;;
16460;SDS011;8341;42.048;24.650;2024-03-29T10:07:27;2.58;;;0.60;;
16460;SDS011;8341;42.048;24.650;2024-03-29T10:09:56;1.00;;;0.52;;
16460;SDS011;8341;42.048;24.650;2024-03-29T10:12:24;0.85;;;0.43;;
16460;SDS011;8341;42.048;24.650;2024-03-29T10:14:51;1.38;;;0.50;;
16460;SDS011;8341;42.048;24.650;2024-03-29T10:17:20;1.65;;;0.50;;
16460;SDS011;8341;42.048;24.650;2024-03-29T10:19:47;1.67;;;0.60;;
16460;SDS011;8341;42.048;24.650;2024-03-29T10:22:15;1.55;;;0.60;;
16460;SDS011;8341;42.048;24.650;2024-03-29T10:24:43;3.95;;;0.68;;
16460;SDS011;8341;42.048;24.650;2024-03-29T10:27:10;2.97;;;0.60;;
16460;SDS011;8341;42.048;24.650;2024-03-29T10:29:36;1.77;;;0.40;;
16460;SDS011;8341;42.048;24.650;2024-03-29T10:32:04;2.33;;;0.52;;
16460;SDS011;8341;42.048;24.650;2024-03-29T10:34:31;2.38;;;0.60;;
16460;SDS011;8341;42.048;24.650;2024-03-29T10:37:01;1.77;;;0.32;;
16460;SDS011;8341;42.048;24.650;2024-03-29T10:39:30;0.90;;;0.40;;
16460;SDS011;8341;42.048;24.650;2024-03-29T10:41:59;2.33;;;0.45;;
16460;SDS011;8341;42.048;24.650;2024-03-29T10:44:27;2.17;;;0.50;;
16460;SDS011;8341;42.048;24.650;2024-03-29T10:46:56;2.33;;;0.30;;
16460;SDS011;8341;42.048;24.650;2024-03-29T10:49:24;1.05;;;0.40;;
16460;SDS011;8341;42.048;24.650;2024-03-29T10:51:51;3.50;;;3.20;;
16460;SDS011;8341;42.048;24.650;2024-03-29T10:54:22;1.58;;;0.45;;
16460;SDS011;8341;42.048;24.650;2024-03-29T10:56:52;3.10;;;0.52;;
16460;SDS011;8341;42.048;24.650;2024-03-29T10:59:27;1.25;;;0.63;;
16460;SDS011;8341;42.048;24.650;2024-03-29T11:02:05;1.17;;;0.25;;
16460;SDS011;8341;42.048;24.650;2024-03-29T11:04:39;4.55;;;0.40;;
16460;SDS011;8341;42.048;24.650;2024-03-29T11:07:12;2.58;;;0.40;;
16460;SDS011;8341;42.048;24.650;2024-03-29T11:09:47;1.35;;;0.40;;
16460;SDS011;8341;42.048;24.650;2024-03-29T11:12:20;0.85;;;0.40;;
16460;SDS011;8341;42.048;24.650;2024-03-29T11:14:51;1.67;;;0.40;;
16460;SDS011;8341;42.048;24.650;2024-03-29T11:17:27;2.70;;;0.50;;
16460;SDS011;8341;42.048;24.650;2024-03-29T11:19:55;2.05;;;0.30;;
16460;SDS011;8341;42.048;24.650;2024-03-29T11:22:23;0.98;;;0.20;;
16460;SDS011;8341;42.048;24.650;2024-03-29T11:24:50;1.67;;;0.32;;
16460;SDS011;8341;42.048;24.650;2024-03-29T11:27:17;3.00;;;0.40;;
16460;SDS011;8341;42.048;24.650;2024-03-29T11:29:51;0.77;;;0.40;;
16460;SDS011;8341;42.048;24.650;2024-03-29T11:32:33;2.20;;;0.40;;
16460;SDS011;8341;42.048;24.650;2024-03-29T11:35:00;3.33;;;0.52;;
16460;SDS011;8341;42.048;24.650;2024-03-29T11:37:29;2.03;;;0.40;;
16460;SDS011;8341;42.048;24.650;2024-03-29T11:39:58;1.75;;;0.55;;
16460;SDS011;8341;42.048;24.650;2024-03-29T11:42:37;3.03;;;0.60;;
16460;SDS011;8341;42.048;24.650;2024-03-29T11:45:09;2.05;;;0.47;;
16460;SDS011;8341;42.048;24.650;2024-03-29T11:47:38;1.98;;;0.55;;
16460;SDS011;8341;42.048;24.650;2024-03-29T11:50:06;1.27;;;0.60;;
16460;SDS011;8341;42.048;24.650;2024-03-29T11:52:36;3.00;;;0.50;;
16460;SDS011;8341;42.048;24.650;2024-03-29T11:55:05;0.93;;;0.50;;
16460;SDS011;8341;42.048;24.650;2024-03-29T11:57:32;2.13;;;0.50;;
16460;SDS011;8341;42.048;24.650;2024-03-29T12:00:01;3.15;;;0.60;;
16460;SDS011;8341;42.048;24.650;2024-03-29T12:02:28;3.30;;;0.47;;
16460;SDS011;8341;42.048;24.650;2024-03-29T12:04:55;2.00;;;0.50;;
16460;SDS011;8341;42.048;24.650;2024-03-29T12:07:21;1.23;;;0.60;;
16460;SDS011;8341;42.048;24.650;2024-03-29T12:09:48;2.25;;;0.50;;
16460;SDS011;8341;42.048;24.650;2024-03-29T12:12:15;1.77;;;0.40;;
16460;SDS011;8341;42.048;24.650;2024-03-29T12:14:42;1.45;;;0.47;;
16460;SDS011;8341;42.048;24.650;2024-03-29T12:17:11;2.47;;;0.50;;
16460;SDS011;8341;42.048;24.650;2024-03-29T12:19:38;1.80;;;0.60;;
16460;SDS011;8341;42.048;24.650;2024-03-29T12:22:07;0.85;;;0.35;;
16460;SDS011;8341;42.048;24.650;2024-03-29T12:24:34;0.57;;;0.43;;
16460;SDS011;8341;42.048;24.650;2024-03-29T12:27:01;2.50;;;0.60;;
16460;SDS011;8341;42.048;24.650;2024-03-29T12:29:28;2.28;;;0.63;;
16460;SDS011;8341;42.048;24.650;2024-03-29T12:31:56;2.08;;;0.60;;
16460;SDS011;8341;42.048;24.650;2024-03-29T12:34:26;2.58;;;0.40;;
16460;SDS011;8341;42.048;24.650;2024-03-29T12:36:53;3.53;;;0.80;;
16460;SDS011;8341;42.048;24.650;2024-03-29T12:39:20;3.05;;;0.70;;
16460;SDS011;8341;42.048;24.650;2024-03-29T12:41:50;1.20;;;0.57;;
16460;SDS011;8341;42.048;24.650;2024-03-29T12:44:18;3.33;;;0.50;;
16460;SDS011;8341;42.048;24.650;2024-03-29T12:46:45;1.65;;;0.68;;
16460;SDS011;8341;42.048;24.650;2024-03-29T12:49:12;2.78;;;0.32;;
16460;SDS011;8341;42.048;24.650;2024-03-29T12:51:43;1.27;;;0.55;;
16460;SDS011;8341;42.048;24.650;2024-03-29T12:54:10;1.88;;;0.55;;
16460;SDS011;8341;42.048;24.650;2024-03-29T12:56:37;3.40;;;0.40;;
16460;SDS011;8341;42.048;24.650;2024-03-29T12:59:07;0.85;;;0.60;;
16460;SDS011;8341;42.048;24.650;2024-03-29T13:01:34;0.82;;;0.40;;
16460;SDS011;8341;42.048;24.650;2024-03-29T13:04:01;1.80;;;0.50;;
16460;SDS011;8341;42.048;24.650;2024-03-29T13:06:28;2.50;;;0.70;;
16460;SDS011;8341;42.048;24.650;2024-03-29T13:08:57;1.95;;;0.70;;
16460;SDS011;8341;42.048;24.650;2024-03-29T13:11:24;3.40;;;0.50;;
16460;SDS011;8341;42.048;24.650;2024-03-29T13:13:51;2.38;;;0.60;;
16460;SDS011;8341;42.048;24.650;2024-03-29T13:16:18;3.88;;;0.70;;
16460;SDS011;8341;42.048;24.650;2024-03-29T13:18:45;4.43;;;0.60;;
16460;SDS011;8341;42.048;24.650;2024-03-29T13:21:12;1.92;;;0.65;;
16460;SDS011;8341;42.048;24.650;2024-03-29T13:23:39;5.38;;;0.95;;
16460;SDS011;8341;42.048;24.650;2024-03-29T13:26:07;4.88;;;0.50;;
16460;SDS011;8341;42.048;24.650;2024-03-29T13:28:34;1.58;;;0.65;;
16460;SDS011;8341;42.048;24.650;2024-03-29T13:31:01;1.55;;;0.70;;
16460;SDS011;8341;42.048;24.650;2024-03-29T13:33:28;1.77;;;0.52;;
16460;SDS011;8341;42.048;24.650;2024-03-29T13:35:57;3.35;;;0.60;;
16460;SDS011;8341;42.048;24.650;2024-03-29T13:38:24;2.00;;;0.50;;
16460;SDS011;8341;42.048;24.650;2024-03-29T13:40:52;3.17;;;0.60;;
16460;SDS011;8341;42.048;24.650;2024-03-29T13:43:20;2.33;;;0.50;;
16460;SDS011;8341;42.048;24.650;2024-03-29T13:45:47;2.60;;;0.90;;
16460;SDS011;8341;42.048;24.650;2024-03-29T13:48:16;4.05;;;0.75;;
16460;SDS011;8341;42.048;24.650;2024-03-29T13:50:43;2.38;;;0.80;;
16460;SDS011;8341;42.048;24.650;2024-03-29T13:53:09;2.42;;;0.80;;
16460;SDS011;8341;42.048;24.650;2024-03-29T13:55:38;2.08;;;0.50;;
16460;SDS011;8341;42.048;24.650;2024-03-29T13:58:06;5.95;;;0.80;;
16460;SDS011;8341;42.048;24.650;2024-03-29T14:00:34;6.90;;;0.77;;
16460;SDS011;8341;42.048;24.650;2024-03-29T14:03:01;0.93;;;0.50;;
16460;SDS011;8341;42.048;24.650;2024-03-29T14:05:28;2.47;;;0.60;;
16460;SDS011;8341;42.048;24.650;2024-03-29T14:07:57;1.45;;;0.73;;
16460;SDS011;8341;42.048;24.650;2024-03-29T14:10:24;4.65;;;0.43;;
16460;SDS011;8341;42.048;24.650;2024-03-29T14:12:51;2.13;;;0.57;;
16460;SDS011;8341;42.048;24.650;2024-03-29T14:15:19;1.10;;;0.50;;
16460;SDS011;8341;42.048;24.650;2024-03-29T14:17:47;1.05;;;0.52;;
16460;SDS011;8341;42.048;24.650;2024-03-29T14:20:16;2.92;;;0.60;;
16460;SDS011;8341;42.048;24.650;2024-03-29T14:22:43;4.03;;;0.70;;
16460;SDS011;8341;42.048;24.650;2024-03-29T14:25:10;3.42;;;0.75;;
16460;SDS011;8341;42.048;24.650;2024-03-29T14:27:37;2.35;;;0.80;;
16460;SDS011;8341;42.048;24.650;2024-03-29T14:30:12;3.45;;;0.93;;
16460;SDS011;8341;42.048;24.650;2024-03-29T14:32:40;2.88;;;0.98;;
16460;SDS011;8341;42.048;24.650;2024-03-29T14:35:12;4.70;;;1.63;;
16460;SDS011;8341;42.048;24.650;2024-03-29T14:37:39;3.40;;;2.03;;
16460;SDS011;8341;42.048;24.650;2024-03-29T14:40:07;4.95;;;2.40;;
16460;SDS011;8341;42.048;24.650;2024-03-29T14:42:34;4.15;;;2.10;;
16460;SDS011;8341;42.048;24.650;2024-03-29T14:45:02;3.58;;;2.22;;
16460;SDS011;8341;42.048;24.650;2024-03-29T14:47:31;4.25;;;2.25;;
16460;SDS011;8341;42.048;24.650;2024-03-29T14:49:58;2.88;;;2.60;;
16460;SDS011;8341;42.048;24.650;2024-03-29T14:52:27;2.97;;;2.20;;